sensor_id;sensor_type;location;lat;lon;timestamp;pressure;altitude;pressure_sealevel;temperature;humidity
16100;BME280;8154;50.830;12.082;2024-02-04T00:00:25;99862.84;;;22.90;32.69
16100;BME280;8154;50.830;12.082;2024-02-04T00:03:11;99859.56;;;22.88;32.69
16100;BME280;8154;50.830;12.082;2024-02-04T00:05:55;99863.22;;;22.87;32.92
16100;BME280;8154;50.830;12.082;2024-02-04T00:08:27;99871.88;;;22.89;32.61
16100;BME280;8154;50.830;12.082;2024-02-04T00:11:03;99863.69;;;22.90;32.86
16100;BME280;8154;50.830;12.082;2024-02-04T00:13:52;99837.59;;;22.86;32.57
16100;BME280;8154;50.830;12.082;2024-02-04T00:16:23;99836.50;;;22.95;32.48
16100;BME280;8154;50.830;12.082;2024-02-04T00:19:06;99840.00;;;22.95;32.57
16100;BME280;8154;50.830;12.082;2024-02-04T00:21:40;99845.28;;;22.81;32.64
16100;BME280;8154;50.830;12.082;2024-02-04T00:24:25;99869.69;;;22.92;32.74
16100;BME280;8154;50.830;12.082;2024-02-04T00:27:02;99869.03;;;22.90;32.56
16100;BME280;8154;50.830;12.082;2024-02-04T00:29:35;99874.81;;;22.94;32.68
16100;BME280;8154;50.830;12.082;2024-02-04T00:32:03;99884.84;;;22.92;32.67
16100;BME280;8154;50.830;12.082;2024-02-04T00:34:44;99906.81;;;22.94;32.47
16100;BME280;8154;50.830;12.082;2024-02-04T00:37:20;99900.16;;;22.90;32.52
16100;BME280;8154;50.830;12.082;2024-02-04T00:40:06;99880.06;;;22.87;32.65
16100;BME280;8154;50.830;12.082;2024-02-04T00:42:48;99897.81;;;22.95;32.69
16100;BME280;8154;50.830;12.082;2024-02-04T00:45:21;99881.16;;;22.93;32.75
16100;BME280;8154;50.830;12.082;2024-02-04T00:48:04;99879.16;;;22.95;32.66
16100;BME280;8154;50.830;12.082;2024-02-04T00:50:51;99870.03;;;22.89;32.58
16100;BME280;8154;50.830;12.082;2024-02-04T00:53:19;99857.72;;;22.88;32.61
16100;BME280;8154;50.830;12.082;2024-02-04T00:56:04;99863.81;;;22.97;32.42
16100;BME280;8154;50.830;12.082;2024-02-04T00:58:47;99858.53;;;22.89;32.77
16100;BME280;8154;50.830;12.082;2024-02-04T01:01:29;99857.53;;;22.90;32.58
16100;BME280;8154;50.830;12.082;2024-02-04T01:04:14;99864.53;;;22.91;32.65
16100;BME280;8154;50.830;12.082;2024-02-04T01:07:00;99874.19;;;22.92;32.77
16100;BME280;8154;50.830;12.082;2024-02-04T01:09:33;99869.03;;;22.90;32.54
16100;BME280;8154;50.830;12.082;2024-02-04T01:12:09;99862.84;;;22.90;32.62
16100;BME280;8154;50.830;12.082;2024-02-04T01:14:41;99854.50;;;22.93;32.46
16100;BME280;8154;50.830;12.082;2024-02-04T01:17:12;99854.69;;;22.91;32.58
16100;BME280;8154;50.830;12.082;2024-02-04T01:19:50;99852.50;;;22.95;32.58
16100;BME280;8154;50.830;12.082;2024-02-04T01:22:35;99839.88;;;22.89;32.64
16100;BME280;8154;50.830;12.082;2024-02-04T01:25:21;99839.16;;;22.95;32.53
16100;BME280;8154;50.830;12.082;2024-02-04T01:28:07;99812.31;;;22.82;32.57
16100;BME280;8154;50.830;12.082;2024-02-04T01:30:45;99845.50;;;22.94;32.55
16100;BME280;8154;50.830;12.082;2024-02-04T01:33:18;99843.22;;;22.91;32.48
16100;BME280;8154;50.830;12.082;2024-02-04T01:35:47;99830.81;;;22.83;32.66
16100;BME280;8154;50.830;12.082;2024-02-04T01:38:18;99842.00;;;22.93;32.69
16100;BME280;8154;50.830;12.082;2024-02-04T01:40:57;99831.16;;;22.95;32.80
16100;BME280;8154;50.830;12.082;2024-02-04T01:43:43;99816.94;;;22.88;32.39
16100;BME280;8154;50.830;12.082;2024-02-04T01:46:12;99825.47;;;22.98;32.33
16100;BME280;8154;50.830;12.082;2024-02-04T01:48:44;99824.19;;;22.94;32.55
16100;BME280;8154;50.830;12.082;2024-02-04T01:51:27;99828.50;;;22.95;32.58
16100;BME280;8154;50.830;12.082;2024-02-04T01:54:14;99825.66;;;22.96;32.45
16100;BME280;8154;50.830;12.082;2024-02-04T01:56:46;99814.25;;;22.88;32.64
16100;BME280;8154;50.830;12.082;2024-02-04T01:59:19;99826.19;;;22.92;32.68
16100;BME280;8154;50.830;12.082;2024-02-04T02:01:47;99827.84;;;22.93;32.63
16100;BME280;8154;50.830;12.082;2024-02-04T02:04:34;99827.22;;;22.91;32.56
16100;BME280;8154;50.830;12.082;2024-02-04T02:07:18;99819.50;;;22.96;32.33
16100;BME280;8154;50.830;12.082;2024-02-04T02:10:06;99829.25;;;23.03;32.27
16100;BME280;8154;50.830;12.082;2024-02-04T02:13:11;99818.50;;;22.97;32.39
16100;BME280;8154;50.830;12.082;2024-02-04T02:16:15;99826.97;;;23.00;32.47
16100;BME280;8154;50.830;12.082;2024-02-04T02:18:54;99824.28;;;23.00;32.40
16100;BME280;8154;50.830;12.082;2024-02-04T02:21:56;99824.00;;;22.95;32.51
16100;BME280;8154;50.830;12.082;2024-02-04T02:24:45;99811.59;;;22.88;32.57
16100;BME280;8154;50.830;12.082;2024-02-04T02:27:27;99816.94;;;22.88;32.49
16100;BME280;8154;50.830;12.082;2024-02-04T02:30:11;99813.53;;;22.94;32.61
16100;BME280;8154;50.830;12.082;2024-02-04T02:32:57;99806.88;;;22.90;32.62
16100;BME280;8154;50.830;12.082;2024-02-04T02:35:43;99812.50;;;22.95;32.54
16100;BME280;8154;50.830;12.082;2024-02-04T02:38:46;99812.88;;;22.92;32.39
16100;BME280;8154;50.830;12.082;2024-02-04T02:41:26;99812.50;;;22.95;32.42
16100;BME280;8154;50.830;12.082;2024-02-04T02:44:08;99818.66;;;22.95;32.41
16100;BME280;8154;50.830;12.082;2024-02-04T02:46:56;99822.19;;;22.96;32.41
16100;BME280;8154;50.830;12.082;2024-02-04T02:49:29;99823.63;;;22.98;32.40
16100;BME280;8154;50.830;12.082;2024-02-04T02:52:00;99841.75;;;23.03;32.33
16100;BME280;8154;50.830;12.082;2024-02-04T02:54:40;99853.25;;;23.03;32.45
16100;BME280;8154;50.830;12.082;2024-02-04T02:57:25;99860.59;;;23.01;32.24
16100;BME280;8154;50.830;12.082;2024-02-04T03:00:02;99846.50;;;22.93;32.14
16100;BME280;8154;50.830;12.082;2024-02-04T03:02:41;99852.13;;;22.98;32.29
16100;BME280;8154;50.830;12.082;2024-02-04T03:05:12;99851.94;;;22.99;32.53
16100;BME280;8154;50.830;12.082;2024-02-04T03:07:58;99837.16;;;22.97;32.26
16100;BME280;8154;50.830;12.082;2024-02-04T03:10:38;99828.88;;;22.92;32.32
16100;BME280;8154;50.830;12.082;2024-02-04T03:13:23;99835.13;;;22.99;32.31
16100;BME280;8154;50.830;12.082;2024-02-04T03:15:53;99832.66;;;22.97;32.23
16100;BME280;8154;50.830;12.082;2024-02-04T03:18:23;99829.16;;;22.97;32.39
16100;BME280;8154;50.830;12.082;2024-02-04T03:21:15;99833.53;;;22.90;32.57
16100;BME280;8154;50.830;12.082;2024-02-04T03:24:01;99823.78;;;22.82;32.50
16100;BME280;8154;50.830;12.082;2024-02-04T03:26:40;99809.91;;;22.87;32.45
16100;BME280;8154;50.830;12.082;2024-02-04T03:29:20;99814.81;;;22.98;32.55
16100;BME280;8154;50.830;12.082;2024-02-04T03:31:56;99806.00;;;22.97;32.48
16100;BME280;8154;50.830;12.082;2024-02-04T03:34:42;99801.09;;;23.01;32.21
16100;BME280;8154;50.830;12.082;2024-02-04T03:37:28;99798.06;;;23.04;32.23
16100;BME280;8154;50.830;12.082;2024-02-04T03:40:15;99790.00;;;22.97;32.25
16100;BME280;8154;50.830;12.082;2024-02-04T03:42:50;99791.94;;;23.03;32.22
16100;BME280;8154;50.830;12.082;2024-02-04T03:45:36;99784.84;;;22.96;32.31
16100;BME280;8154;50.830;12.082;2024-02-04T03:48:22;99795.34;;;22.97;32.39
16100;BME280;8154;50.830;12.082;2024-02-04T03:51:08;99774.38;;;22.94;32.17
16100;BME280;8154;50.830;12.082;2024-02-04T03:53:50;99779.88;;;22.93;32.28
16100;BME280;8154;50.830;12.082;2024-02-04T03:56:37;99785.56;;;22.90;32.35
16100;BME280;8154;50.830;12.082;2024-02-04T03:59:16;99793.47;;;22.98;32.26
16100;BME280;8154;50.830;12.082;2024-02-04T04:02:02;99760.03;;;22.81;32.32
16100;BME280;8154;50.830;12.082;2024-02-04T04:04:47;99775.94;;;22.89;32.38
16100;BME280;8154;50.830;12.082;2024-02-04T04:07:33;99794.97;;;23.00;32.42
16100;BME280;8154;50.830;12.082;2024-02-04T04:10:12;99778.88;;;22.94;32.25
16100;BME280;8154;50.830;12.082;2024-02-04T04:12:58;99764.00;;;22.85;32.35
16100;BME280;8154;50.830;12.082;2024-02-04T04:15:38;99765.25;;;22.89;32.57
16100;BME280;8154;50.830;12.082;2024-02-04T04:18:08;99744.41;;;22.92;32.43
16100;BME280;8154;50.830;12.082;2024-02-04T04:20:41;99728.13;;;22.87;32.28
16100;BME280;8154;50.830;12.082;2024-02-04T04:23:24;99724.25;;;22.90;32.28
16100;BME280;8154;50.830;12.082;2024-02-04T04:26:10;99736.97;;;22.88;32.30
16100;BME280;8154;50.830;12.082;2024-02-04T04:28:48;99734.41;;;22.94;32.29
16100;BME280;8154;50.830;12.082;2024-02-04T04:31:33;99723.09;;;22.92;32.28
16100;BME280;8154;50.830;12.082;2024-02-04T04:34:18;99730.72;;;22.95;32.32
16100;BME280;8154;50.830;12.082;2024-02-04T04:36:50;99747.06;;;22.92;32.24
16100;BME280;8154;50.830;12.082;2024-02-04T04:39:35;99742.41;;;22.94;32.28
16100;BME280;8154;50.830;12.082;2024-02-04T04:42:21;99749.38;;;22.95;32.29
16100;BME280;8154;50.830;12.082;2024-02-04T04:45:00;99747.72;;;22.94;32.20
16100;BME280;8154;50.830;12.082;2024-02-04T04:47:42;99757.91;;;22.91;32.49
16100;BME280;8154;50.830;12.082;2024-02-04T04:50:14;99763.63;;;22.88;32.47
16100;BME280;8154;50.830;12.082;2024-02-04T04:52:42;99774.72;;;22.91;32.43
16100;BME280;8154;50.830;12.082;2024-02-04T04:55:20;99767.84;;;22.97;32.24
16100;BME280;8154;50.830;12.082;2024-02-04T04:57:59;99770.13;;;23.00;32.40
16100;BME280;8154;50.830;12.082;2024-02-04T05:00:39;99758.44;;;23.01;32.14
16100;BME280;8154;50.830;12.082;2024-02-04T05:03:27;99735.38;;;22.93;32.31
16100;BME280;8154;50.830;12.082;2024-02-04T05:06:12;99744.59;;;22.91;32.32
16100;BME280;8154;50.830;12.082;2024-02-04T05:08:55;99739.34;;;22.83;32.56
16100;BME280;8154;50.830;12.082;2024-02-04T05:11:26;99749.19;;;22.82;32.44
16100;BME280;8154;50.830;12.082;2024-02-04T05:13:57;99744.31;;;22.86;32.59
16100;BME280;8154;50.830;12.082;2024-02-04T05:16:34;99726.94;;;22.90;32.33
16100;BME280;8154;50.830;12.082;2024-02-04T05:19:20;99714.25;;;22.92;32.26
16100;BME280;8154;50.830;12.082;2024-02-04T05:21:53;99724.06;;;22.91;32.29
16100;BME280;8154;50.830;12.082;2024-02-04T05:24:23;99726.41;;;22.94;32.32
16100;BME280;8154;50.830;12.082;2024-02-04T05:27:08;99717.94;;;22.91;32.16
16100;BME280;8154;50.830;12.082;2024-02-04T05:29:39;99704.06;;;22.81;32.37
16100;BME280;8154;50.830;12.082;2024-02-04T05:32:07;99693.31;;;22.74;32.10
16100;BME280;8154;50.830;12.082;2024-02-04T05:34:49;99723.00;;;23.00;32.25
16100;BME280;8154;50.830;12.082;2024-02-04T05:37:20;99741.28;;;23.03;32.19
16100;BME280;8154;50.830;12.082;2024-02-04T05:40:07;99722.44;;;23.05;32.13
16100;BME280;8154;50.830;12.082;2024-02-04T05:42:44;99722.91;;;22.94;32.27
16100;BME280;8154;50.830;12.082;2024-02-04T05:45:18;99727.94;;;22.89;32.36
16100;BME280;8154;50.830;12.082;2024-02-04T05:47:50;99729.41;;;22.91;32.39
16100;BME280;8154;50.830;12.082;2024-02-04T05:50:34;99723.28;;;22.91;32.21
16100;BME280;8154;50.830;12.082;2024-02-04T05:53:17;99734.56;;;22.93;32.28
16100;BME280;8154;50.830;12.082;2024-02-04T05:55:52;99731.88;;;22.93;32.37
16100;BME280;8154;50.830;12.082;2024-02-04T05:58:39;99745.59;;;22.90;32.24
16100;BME280;8154;50.830;12.082;2024-02-04T06:01:16;99737.59;;;22.90;32.28
16100;BME280;8154;50.830;12.082;2024-02-04T06:04:02;99702.03;;;22.83;32.11
16100;BME280;8154;50.830;12.082;2024-02-04T06:06:32;99709.94;;;22.91;32.21
16100;BME280;8154;50.830;12.082;2024-02-04T06:09:06;99704.81;;;22.89;32.22
16100;BME280;8154;50.830;12.082;2024-02-04T06:11:37;99716.16;;;22.98;32.14
16100;BME280;8154;50.830;12.082;2024-02-04T06:14:08;99717.00;;;22.98;32.22
16100;BME280;8154;50.830;12.082;2024-02-04T06:16:38;99703.97;;;23.03;32.13
16100;BME280;8154;50.830;12.082;2024-02-04T06:19:08;99692.84;;;23.00;32.31
16100;BME280;8154;50.830;12.082;2024-02-04T06:21:44;99707.38;;;22.97;32.10
16100;BME280;8154;50.830;12.082;2024-02-04T06:24:12;99712.88;;;22.96;32.47
16100;BME280;8154;50.830;12.082;2024-02-04T06:26:47;99708.91;;;22.92;32.16
16100;BME280;8154;50.830;12.082;2024-02-04T06:29:29;99709.56;;;22.94;32.29
16100;BME280;8154;50.830;12.082;2024-02-04T06:32:16;99668.47;;;22.88;32.27
16100;BME280;8154;50.830;12.082;2024-02-04T06:35:00;99667.31;;;22.91;32.12
16100;BME280;8154;50.830;12.082;2024-02-04T06:37:45;99672.44;;;22.92;32.17
16100;BME280;8154;50.830;12.082;2024-02-04T06:40:32;99665.09;;;22.80;32.40
16100;BME280;8154;50.830;12.082;2024-02-04T06:43:16;99675.66;;;22.88;32.45
16100;BME280;8154;50.830;12.082;2024-02-04T06:45:52;99691.91;;;22.93;32.45
16100;BME280;8154;50.830;12.082;2024-02-04T06:48:38;99706.72;;;22.95;32.19
16100;BME280;8154;50.830;12.082;2024-02-04T06:51:11;99693.94;;;22.91;32.39
16100;BME280;8154;50.830;12.082;2024-02-04T06:53:55;99705.31;;;22.99;32.20
16100;BME280;8154;50.830;12.082;2024-02-04T06:56:28;99711.13;;;23.03;32.15
16100;BME280;8154;50.830;12.082;2024-02-04T06:59:04;99705.97;;;23.01;32.22
16100;BME280;8154;50.830;12.082;2024-02-04T07:01:51;99686.41;;;22.94;32.31
16100;BME280;8154;50.830;12.082;2024-02-04T07:04:23;99702.56;;;22.93;32.43
16100;BME280;8154;50.830;12.082;2024-02-04T07:07:09;99658.66;;;22.89;32.04
16100;BME280;8154;50.830;12.082;2024-02-04T07:09:56;99687.31;;;23.01;32.04
16100;BME280;8154;50.830;12.082;2024-02-04T07:12:42;99690.16;;;23.00;32.06
16100;BME280;8154;50.830;12.082;2024-02-04T07:15:25;99688.53;;;22.99;32.01
16100;BME280;8154;50.830;12.082;2024-02-04T07:18:00;99680.34;;;23.00;32.13
16100;BME280;8154;50.830;12.082;2024-02-04T07:20:46;99679.59;;;22.92;32.28
16100;BME280;8154;50.830;12.082;2024-02-04T07:23:27;99685.41;;;22.95;32.20
16100;BME280;8154;50.830;12.082;2024-02-04T07:26:11;99678.25;;;22.96;32.41
16100;BME280;8154;50.830;12.082;2024-02-04T07:28:40;99668.41;;;22.82;32.44
16100;BME280;8154;50.830;12.082;2024-02-04T07:31:15;99674.66;;;22.89;32.22
16100;BME280;8154;50.830;12.082;2024-02-04T07:34:01;99680.25;;;22.94;32.26
16100;BME280;8154;50.830;12.082;2024-02-04T07:36:42;99675.56;;;22.96;32.28
16100;BME280;8154;50.830;12.082;2024-02-04T07:39:12;99685.66;;;23.00;32.32
16100;BME280;8154;50.830;12.082;2024-02-04T07:41:58;99667.56;;;22.96;32.19
16100;BME280;8154;50.830;12.082;2024-02-04T07:44:47;99651.41;;;22.83;32.06
16100;BME280;8154;50.830;12.082;2024-02-04T07:47:33;99683.81;;;23.01;32.21
16100;BME280;8154;50.830;12.082;2024-02-04T07:50:05;99686.22;;;22.96;32.10
16100;BME280;8154;50.830;12.082;2024-02-04T07:52:51;99681.25;;;22.93;32.11
16100;BME280;8154;50.830;12.082;2024-02-04T07:55:33;99678.75;;;22.91;32.33
16100;BME280;8154;50.830;12.082;2024-02-04T07:58:09;99669.59;;;22.94;32.07
16100;BME280;8154;50.830;12.082;2024-02-04T08:00:43;99664.25;;;22.94;32.42
16100;BME280;8154;50.830;12.082;2024-02-04T08:03:12;99652.75;;;22.93;32.29
16100;BME280;8154;50.830;12.082;2024-02-04T08:05:45;99657.34;;;22.99;32.18
16100;BME280;8154;50.830;12.082;2024-02-04T08:08:30;99676.84;;;23.00;32.22
16100;BME280;8154;50.830;12.082;2024-02-04T08:11:04;99670.84;;;22.98;32.17
16100;BME280;8154;50.830;12.082;2024-02-04T08:13:33;99683.81;;;23.01;32.29
16100;BME280;8154;50.830;12.082;2024-02-04T08:16:05;99679.88;;;22.97;32.37
16100;BME280;8154;50.830;12.082;2024-02-04T08:18:44;99679.22;;;22.95;32.42
16100;BME280;8154;50.830;12.082;2024-02-04T08:21:29;99673.91;;;22.95;32.23
16100;BME280;8154;50.830;12.082;2024-02-04T08:24:05;99681.72;;;22.96;32.24
16100;BME280;8154;50.830;12.082;2024-02-04T08:26:51;99661.31;;;22.89;32.13
16100;BME280;8154;50.830;12.082;2024-02-04T08:29:28;99676.09;;;22.91;32.24
16100;BME280;8154;50.830;12.082;2024-02-04T08:31:57;99659.78;;;22.80;32.22
16100;BME280;8154;50.830;12.082;2024-02-04T08:34:28;99684.19;;;22.98;32.17
16100;BME280;8154;50.830;12.082;2024-02-04T08:37:14;99665.16;;;23.01;32.29
16100;BME280;8154;50.830;12.082;2024-02-04T08:39:50;99647.81;;;22.90;32.00
16100;BME280;8154;50.830;12.082;2024-02-04T08:42:27;99657.44;;;22.91;32.08
16100;BME280;8154;50.830;12.082;2024-02-04T08:44:57;99650.28;;;22.92;32.20
16100;BME280;8154;50.830;12.082;2024-02-04T08:47:41;99628.25;;;22.83;32.29
16100;BME280;8154;50.830;12.082;2024-02-04T08:50:26;99648.59;;;23.05;32.18
16100;BME280;8154;50.830;12.082;2024-02-04T08:52:56;99634.41;;;22.84;32.38
16100;BME280;8154;50.830;12.082;2024-02-04T08:55:37;99655.44;;;22.93;32.20
16100;BME280;8154;50.830;12.082;2024-02-04T08:58:14;99656.72;;;22.97;32.11
16100;BME280;8154;50.830;12.082;2024-02-04T09:00:43;99659.56;;;22.96;32.16
16100;BME280;8154;50.830;12.082;2024-02-04T09:03:29;99645.13;;;23.05;32.15
16100;BME280;8154;50.830;12.082;2024-02-04T09:06:10;99647.41;;;23.08;32.03
16100;BME280;8154;50.830;12.082;2024-02-04T09:08:38;99647.97;;;23.03;32.15
16100;BME280;8154;50.830;12.082;2024-02-04T09:11:24;99653.13;;;23.05;31.98
16100;BME280;8154;50.830;12.082;2024-02-04T09:13:59;99653.72;;;23.07;32.20
16100;BME280;8154;50.830;12.082;2024-02-04T09:16:26;99657.63;;;23.04;32.09
16100;BME280;8154;50.830;12.082;2024-02-04T09:19:02;99665.34;;;22.99;32.11
16100;BME280;8154;50.830;12.082;2024-02-04T09:21:48;99663.50;;;23.00;32.07
16100;BME280;8154;50.830;12.082;2024-02-04T09:24:19;99662.44;;;22.94;32.17
16100;BME280;8154;50.830;12.082;2024-02-04T09:26:59;99642.28;;;22.92;32.41
16100;BME280;8154;50.830;12.082;2024-02-04T09:29:39;99641.63;;;22.90;32.36
16100;BME280;8154;50.830;12.082;2024-02-04T09:32:25;99648.16;;;23.02;32.31
16100;BME280;8154;50.830;12.082;2024-02-04T09:35:10;99634.00;;;23.01;32.31
16100;BME280;8154;50.830;12.082;2024-02-04T09:37:46;99652.28;;;23.04;32.09
16100;BME280;8154;50.830;12.082;2024-02-04T09:40:24;99643.06;;;23.07;32.38
16100;BME280;8154;50.830;12.082;2024-02-04T09:43:08;99630.25;;;22.96;32.32
16100;BME280;8154;50.830;12.082;2024-02-04T09:45:55;99645.41;;;22.95;32.39
16100;BME280;8154;50.830;12.082;2024-02-04T09:48:44;99656.34;;;23.00;32.29
16100;BME280;8154;50.830;12.082;2024-02-04T09:51:26;99647.31;;;23.01;32.08
16100;BME280;8154;50.830;12.082;2024-02-04T09:54:03;99647.13;;;23.03;32.09
16100;BME280;8154;50.830;12.082;2024-02-04T09:56:52;99652.28;;;23.04;31.96
16100;BME280;8154;50.830;12.082;2024-02-04T09:59:25;99649.16;;;23.01;32.32
16100;BME280;8154;50.830;12.082;2024-02-04T10:02:11;99652.47;;;23.03;32.05
16100;BME280;8154;50.830;12.082;2024-02-04T10:04:54;99602.78;;;22.81;32.40
16100;BME280;8154;50.830;12.082;2024-02-04T10:07:28;99641.53;;;22.98;32.31
16100;BME280;8154;50.830;12.082;2024-02-04T10:10:00;99632.94;;;22.96;32.17
16100;BME280;8154;50.830;12.082;2024-02-04T10:12:37;99642.19;;;23.00;32.49
16100;BME280;8154;50.830;12.082;2024-02-04T10:15:24;99631.34;;;23.01;32.25
16100;BME280;8154;50.830;12.082;2024-02-04T10:18:17;99614.69;;;22.99;32.26
16100;BME280;8154;50.830;12.082;2024-02-04T10:21:02;99606.50;;;23.01;32.17
16100;BME280;8154;50.830;12.082;2024-02-04T10:23:35;99597.50;;;23.02;32.14
16100;BME280;8154;50.830;12.082;2024-02-04T10:26:17;99595.84;;;23.01;32.01
16100;BME280;8154;50.830;12.082;2024-02-04T10:29:03;99593.44;;;23.06;32.12
16100;BME280;8154;50.830;12.082;2024-02-04T10:31:47;99581.56;;;23.08;32.21
16100;BME280;8154;50.830;12.082;2024-02-04T10:34:37;99567.09;;;22.96;32.18
16100;BME280;8154;50.830;12.082;2024-02-04T10:37:09;99569.38;;;22.99;32.29
16100;BME280;8154;50.830;12.082;2024-02-04T10:39:41;99567.56;;;23.00;32.06
16100;BME280;8154;50.830;12.082;2024-02-04T10:42:15;99573.94;;;23.05;32.14
16100;BME280;8154;50.830;12.082;2024-02-04T10:45:04;99577.25;;;23.07;32.19
16100;BME280;8154;50.830;12.082;2024-02-04T10:47:38;99575.63;;;23.06;31.98
16100;BME280;8154;50.830;12.082;2024-02-04T10:50:17;99572.31;;;23.04;32.21
16100;BME280;8154;50.830;12.082;2024-02-04T10:52:49;99560.50;;;22.92;31.98
16100;BME280;8154;50.830;12.082;2024-02-04T10:55:27;99563.63;;;22.96;32.01
16100;BME280;8154;50.830;12.082;2024-02-04T10:58:12;99558.78;;;23.06;32.31
16100;BME280;8154;50.830;12.082;2024-02-04T11:00:59;99551.44;;;23.08;31.96
16100;BME280;8154;50.830;12.082;2024-02-04T11:03:45;99557.75;;;23.07;31.93
16100;BME280;8154;50.830;12.082;2024-02-04T11:06:32;99551.09;;;22.96;32.21
16100;BME280;8154;50.830;12.082;2024-02-04T11:09:19;99556.31;;;23.04;32.04
16100;BME280;8154;50.830;12.082;2024-02-04T11:12:09;99551.94;;;22.97;32.05
16100;BME280;8154;50.830;12.082;2024-02-04T11:14:49;99554.28;;;23.06;32.24
16100;BME280;8154;50.830;12.082;2024-02-04T11:23:32;99557.56;;;23.08;32.00
16100;BME280;8154;50.830;12.082;2024-02-04T11:26:22;99542.72;;;22.99;32.16
16100;BME280;8154;50.830;12.082;2024-02-04T11:29:09;99552.63;;;23.05;32.16
16100;BME280;8154;50.830;12.082;2024-02-04T11:31:46;99565.16;;;23.05;32.14
16100;BME280;8154;50.830;12.082;2024-02-04T11:34:17;99566.78;;;23.06;32.27
16100;BME280;8154;50.830;12.082;2024-02-04T11:37:15;99572.31;;;23.04;32.11
16100;BME280;8154;50.830;12.082;2024-02-04T11:40:03;99555.28;;;22.84;32.16
16100;BME280;8154;50.830;12.082;2024-02-04T11:42:40;99574.81;;;22.91;32.40
16100;BME280;8154;50.830;12.082;2024-02-04T11:45:15;99549.50;;;22.81;32.22
16100;BME280;8154;50.830;12.082;2024-02-04T11:47:43;99539.78;;;22.73;32.36
16100;BME280;8154;50.830;12.082;2024-02-04T11:50:29;99571.47;;;23.04;32.22
16100;BME280;8154;50.830;12.082;2024-02-04T11:53:11;99559.94;;;22.97;32.32
16100;BME280;8154;50.830;12.082;2024-02-04T11:55:45;99562.78;;;22.95;32.24
16100;BME280;8154;50.830;12.082;2024-02-04T11:58:28;99566.13;;;23.04;32.02
16100;BME280;8154;50.830;12.082;2024-02-04T12:01:10;99547.38;;;22.91;32.28
16100;BME280;8154;50.830;12.082;2024-02-04T12:03:43;99536.91;;;22.89;32.08
16100;BME280;8154;50.830;12.082;2024-02-04T12:06:28;99548.44;;;22.96;32.03
16100;BME280;8154;50.830;12.082;2024-02-04T12:09:17;99562.34;;;22.92;32.20
16100;BME280;8154;50.830;12.082;2024-02-04T12:12:02;99548.25;;;22.98;32.26
16100;BME280;8154;50.830;12.082;2024-02-04T12:14:49;99554.91;;;23.08;31.93
16100;BME280;8154;50.830;12.082;2024-02-04T12:17:24;99558.78;;;23.06;32.17
16100;BME280;8154;50.830;12.082;2024-02-04T12:19:58;99556.31;;;23.04;32.02
16100;BME280;8154;50.830;12.082;2024-02-04T12:22:43;99562.47;;;23.05;32.06
16100;BME280;8154;50.830;12.082;2024-02-04T12:25:19;99553.47;;;23.06;31.94
16100;BME280;8154;50.830;12.082;2024-02-04T12:27:55;99550.16;;;23.04;32.07
16100;BME280;8154;50.830;12.082;2024-02-04T12:30:41;99561.66;;;23.04;32.04
16100;BME280;8154;50.830;12.082;2024-02-04T12:33:10;99561.66;;;23.04;32.13
16100;BME280;8154;50.830;12.082;2024-02-04T12:35:40;99560.81;;;23.04;32.25
16100;BME280;8154;50.830;12.082;2024-02-04T12:38:16;99529.91;;;22.88;32.06
16100;BME280;8154;50.830;12.082;2024-02-04T12:40:52;99555.84;;;23.01;32.19
16100;BME280;8154;50.830;12.082;2024-02-04T12:43:19;99557.53;;;23.02;32.26
16100;BME280;8154;50.830;12.082;2024-02-04T12:45:49;99553.19;;;23.01;32.13
16100;BME280;8154;50.830;12.082;2024-02-04T12:48:22;99546.22;;;23.00;32.14
16100;BME280;8154;50.830;12.082;2024-02-04T12:51:08;99534.50;;;22.94;32.16
16100;BME280;8154;50.830;12.082;2024-02-04T12:54:08;99539.94;;;23.07;32.07
16100;BME280;8154;50.830;12.082;2024-02-04T12:56:45;99526.81;;;23.06;32.21
16100;BME280;8154;50.830;12.082;2024-02-04T12:59:32;99517.75;;;23.00;32.08
16100;BME280;8154;50.830;12.082;2024-02-04T13:02:14;99536.44;;;23.07;32.03
16100;BME280;8154;50.830;12.082;2024-02-04T13:05:00;99527.13;;;22.96;32.10
16100;BME280;8154;50.830;12.082;2024-02-04T13:07:39;99528.13;;;22.95;32.34
16100;BME280;8154;50.830;12.082;2024-02-04T13:10:26;99524.72;;;23.01;32.13
16100;BME280;8154;50.830;12.082;2024-02-04T13:13:12;99527.19;;;23.03;32.05
16100;BME280;8154;50.830;12.082;2024-02-04T13:15:45;99516.53;;;23.03;32.24
16100;BME280;8154;50.830;12.082;2024-02-04T13:18:30;99526.72;;;22.99;32.18
16100;BME280;8154;50.830;12.082;2024-02-04T13:21:03;99524.53;;;23.03;32.12
16100;BME280;8154;50.830;12.082;2024-02-04T13:23:50;99490.50;;;22.84;32.32
16100;BME280;8154;50.830;12.082;2024-02-04T13:26:25;99515.50;;;23.04;32.02
16100;BME280;8154;50.830;12.082;2024-02-04T13:29:07;99514.88;;;23.02;32.01
16100;BME280;8154;50.830;12.082;2024-02-04T13:31:45;99507.50;;;23.04;32.06
16100;BME280;8154;50.830;12.082;2024-02-04T13:34:19;99505.47;;;23.06;32.02
16100;BME280;8154;50.830;12.082;2024-02-04T13:37:01;99506.50;;;23.05;32.30
16100;BME280;8154;50.830;12.082;2024-02-04T13:39:47;99505.03;;;23.02;32.04
16100;BME280;8154;50.830;12.082;2024-02-04T13:42:33;99496.34;;;22.94;32.03
16100;BME280;8154;50.830;12.082;2024-02-04T13:45:03;99517.16;;;23.05;32.22
16100;BME280;8154;50.830;12.082;2024-02-04T13:47:40;99509.16;;;23.05;32.08
16100;BME280;8154;50.830;12.082;2024-02-04T13:50:26;99516.13;;;23.06;32.19
16100;BME280;8154;50.830;12.082;2024-02-04T13:53:08;99514.88;;;23.02;32.28
16100;BME280;8154;50.830;12.082;2024-02-04T13:55:50;99516.19;;;22.91;32.33
16100;BME280;8154;50.830;12.082;2024-02-04T13:58:37;99514.75;;;22.89;32.38
16100;BME280;8154;50.830;12.082;2024-02-04T14:01:22;99473.38;;;22.71;32.32
16100;BME280;8154;50.830;12.082;2024-02-04T14:03:59;99501.75;;;23.00;32.37
16100;BME280;8154;50.830;12.082;2024-02-04T14:06:29;99505.03;;;23.02;32.11
16100;BME280;8154;50.830;12.082;2024-02-04T14:08:58;99477.03;;;22.92;32.21
16100;BME280;8154;50.830;12.082;2024-02-04T14:11:44;99500.59;;;23.09;32.19